Time;durP1;ratioP1;P1;durP2;ratioP2;P2;SDS_P1;SDS_P2;PMS_P1;PMS_P2;Temp;Humidity;BMP_temperature;BMP_pressure;BME280_temperature;BME280_humidity;BME280_pressure;Samples;Min_cycle;Max_cycle;Signal;HPM_P1;HPM_P2
2023/01/29 00:01:05;;;;;;;7.40;6.17;;;;;;;;;;5023854;28;20239;-53
2023/01/29 00:03:32;;;;;;;8.60;6.30;;;;;;;;;;5025682;28;20283;-52
2023/01/29 00:05:59;;;;;;;7.27;6.10;;;;;;;;;;5023181;28;20248;-52
2023/01/29 00:08:26;;;;;;;13.23;6.87;;;;;;;;;;5012145;28;20267;-53
2023/01/29 00:10:52;;;;;;;8.50;6.87;;;;;;;;;;5017236;28;20235;-54
2023/01/29 00:13:21;;;;;;;7.23;6.53;;;;;;;;;;5022027;28;20773;-53
2023/01/29 00:15:53;;;;;;;8.43;7.13;;;;;;;;;;5026955;28;20238;-53
2023/01/29 00:18:20;;;;;;;10.43;7.03;;;;;;;;;;5042964;28;20267;-53
2023/01/29 00:20:46;;;;;;;11.80;7.13;;;;;;;;;;5043849;28;20276;-52
2023/01/29 00:23:14;;;;;;;10.17;7.20;;;;;;;;;;5028583;28;20243;-53
2023/01/29 00:25:40;;;;;;;8.17;6.83;;;;;;;;;;5046807;28;20312;-53
2023/01/29 00:28:07;;;;;;;10.87;8.40;;;;;;;;;;5037952;28;20239;-53
2023/01/29 00:30:35;;;;;;;10.97;8.07;;;;;;;;;;5042936;28;20244;-58
2023/01/29 00:33:02;;;;;;;9.30;7.93;;;;;;;;;;5045301;28;20232;-53
2023/01/29 00:35:28;;;;;;;9.50;8.10;;;;;;;;;;5041607;28;20754;-53
2023/01/29 00:37:55;;;;;;;12.13;7.70;;;;;;;;;;5033982;28;20240;-53
2023/01/29 00:40:22;;;;;;;13.43;7.97;;;;;;;;;;5040096;28;20757;-53
2023/01/29 00:45:39;;;;;;;12.30;8.83;;;;;;;;;;4982771;28;20624;-52
2023/01/29 00:48:05;;;;;;;12.73;9.23;;;;;;;;;;5041504;28;20297;-52
2023/01/29 00:50:32;;;;;;;10.33;8.73;;;;;;;;;;5038542;28;20340;-53
2023/01/29 00:52:58;;;;;;;10.27;8.20;;;;;;;;;;5041131;28;20238;-53
2023/01/29 00:55:25;;;;;;;10.77;8.90;;;;;;;;;;5041796;28;20703;-53
2023/01/29 00:57:52;;;;;;;11.43;9.20;;;;;;;;;;5042618;28;20231;-52
2023/01/29 01:00:19;;;;;;;14.77;9.63;;;;;;;;;;5033065;28;20234;-53
2023/01/29 01:05:31;;;;;;;13.27;8.67;;;;;;;;;;5041723;28;20600;-52
2023/01/29 01:07:58;;;;;;;9.83;8.87;;;;;;;;;;5037198;28;20227;-53
2023/01/29 01:10:24;;;;;;;10.90;9.27;;;;;;;;;;5039558;28;20232;-53
2023/01/29 01:12:53;;;;;;;11.93;10.07;;;;;;;;;;5032713;28;20227;-52
2023/01/29 01:15:20;;;;;;;12.07;9.13;;;;;;;;;;5036883;28;20243;-53
2023/01/29 01:17:48;;;;;;;11.47;8.97;;;;;;;;;;5039820;28;20321;-53
2023/01/29 01:20:15;;;;;;;12.47;10.07;;;;;;;;;;5041317;28;20261;-55
2023/01/29 01:22:41;;;;;;;10.80;8.70;;;;;;;;;;5042956;28;20240;-52
2023/01/29 01:25:08;;;;;;;11.47;9.20;;;;;;;;;;5020913;28;20263;-52
2023/01/29 01:27:39;;;;;;;12.33;9.27;;;;;;;;;;5023542;28;20236;-52
2023/01/29 01:30:07;;;;;;;16.67;9.77;;;;;;;;;;5031965;28;20724;-54
2023/01/29 01:32:33;;;;;;;13.40;8.90;;;;;;;;;;5033714;28;21078;-53
2023/01/29 01:35:01;;;;;;;21.30;10.60;;;;;;;;;;5041268;28;20316;-52
2023/01/29 01:37:27;;;;;;;12.87;10.30;;;;;;;;;;5041703;28;20731;-53
2023/01/29 01:39:57;;;;;;;14.53;9.87;;;;;;;;;;5032658;28;20288;-54
2023/01/29 01:42:28;;;;;;;10.70;9.40;;;;;;;;;;5036074;28;20331;-53
2023/01/29 01:44:57;;;;;;;12.73;10.30;;;;;;;;;;5041774;28;20267;-53
2023/01/29 01:47:26;;;;;;;13.07;9.67;;;;;;;;;;5038640;28;20343;-54
2023/01/29 01:49:54;;;;;;;12.33;10.10;;;;;;;;;;5042627;28;20323;-53
2023/01/29 01:52:22;;;;;;;14.53;9.90;;;;;;;;;;5043629;28;20238;-53
2023/01/29 01:54:49;;;;;;;13.43;10.03;;;;;;;;;;5036516;28;20270;-53
2023/01/29 01:57:23;;;;;;;13.17;10.60;;;;;;;;;;5042069;28;20270;-54
2023/01/29 01:59:53;;;;;;;12.37;10.27;;;;;;;;;;5042582;28;20225;-53
2023/01/29 02:10:36;;;;;;;14.37;10.63;;;;;;;;;;5044878;28;20242;-53
2023/01/29 02:13:03;;;;;;;15.07;10.33;;;;;;;;;;5043615;28;20709;-54
2023/01/29 02:15:30;;;;;;;23.87;10.60;;;;;;;;;;5045154;28;20650;-54
2023/01/29 02:17:56;;;;;;;17.17;10.13;;;;;;;;;;5044642;28;20301;-53
2023/01/29 02:20:24;;;;;;;11.53;9.97;;;;;;;;;;5036834;28;20368;-53
2023/01/29 02:23:12;;;;;;;12.70;10.63;;;;;;;;;;5035563;28;20256;-53
2023/01/29 02:25:55;;;;;;;14.50;11.43;;;;;;;;;;5044815;28;20238;-53
2023/01/29 02:28:32;;;;;;;15.30;11.03;;;;;;;;;;5041303;28;20362;-53
2023/01/29 02:31:03;;;;;;;14.80;11.73;;;;;;;;;;5024968;28;20319;-54
2023/01/29 02:33:34;;;;;;;15.13;11.13;;;;;;;;;;5024883;28;20233;-54
2023/01/29 02:36:08;;;;;;;13.43;9.60;;;;;;;;;;5039499;28;20258;-55
2023/01/29 02:38:39;;;;;;;13.67;10.17;;;;;;;;;;5043718;28;20235;-53
2023/01/29 02:41:08;;;;;;;15.00;11.20;;;;;;;;;;5048167;28;20255;-54
2023/01/29 02:43:39;;;;;;;15.40;11.37;;;;;;;;;;5057715;28;20257;-54
2023/01/29 02:46:09;;;;;;;14.80;10.80;;;;;;;;;;5053992;28;20244;-53
2023/01/29 02:48:39;;;;;;;11.00;9.67;;;;;;;;;;5046146;28;20314;-52
2023/01/29 02:51:08;;;;;;;15.13;11.13;;;;;;;;;;5042012;28;20236;-57
2023/01/29 02:53:37;;;;;;;14.43;9.60;;;;;;;;;;5043833;28;20258;-52
2023/01/29 02:56:09;;;;;;;13.03;10.37;;;;;;;;;;5040360;28;20249;-52
2023/01/29 02:58:39;;;;;;;14.73;11.30;;;;;;;;;;5036781;28;20266;-53
2023/01/29 03:01:09;;;;;;;14.73;11.27;;;;;;;;;;5044279;28;20936;-53
2023/01/29 03:03:38;;;;;;;16.20;11.63;;;;;;;;;;5040955;28;20572;-56
2023/01/29 03:06:06;;;;;;;13.03;10.60;;;;;;;;;;5040181;28;20242;-54
2023/01/29 03:08:41;;;;;;;13.27;10.73;;;;;;;;;;5044530;28;21541;-53
2023/01/29 03:11:14;;;;;;;13.97;10.57;;;;;;;;;;5043208;28;20366;-53
2023/01/29 03:13:44;;;;;;;14.90;10.97;;;;;;;;;;5038381;28;20259;-53
2023/01/29 03:16:14;;;;;;;12.80;10.67;;;;;;;;;;5034450;28;20238;-53
2023/01/29 03:18:45;;;;;;;15.13;11.77;;;;;;;;;;5044803;28;20231;-53
2023/01/29 03:32:10;;;;;;;14.20;10.53;;;;;;;;;;5042732;28;20613;-54
2023/01/29 03:34:42;;;;;;;15.90;12.53;;;;;;;;;;5042599;28;20235;-52
2023/01/29 03:37:12;;;;;;;16.20;11.77;;;;;;;;;;5043400;28;20243;-53
2023/01/29 03:39:39;;;;;;;15.67;10.87;;;;;;;;;;5028121;28;20290;-53
2023/01/29 03:42:12;;;;;;;12.73;10.00;;;;;;;;;;5023478;28;20284;-53
2023/01/29 03:44:45;;;;;;;13.50;10.63;;;;;;;;;;5042100;28;20230;-52
2023/01/29 03:47:14;;;;;;;15.53;10.70;;;;;;;;;;5040503;28;20250;-52
2023/01/29 03:49:46;;;;;;;13.23;11.53;;;;;;;;;;5037095;28;20252;-54
2023/01/29 03:52:15;;;;;;;15.73;11.90;;;;;;;;;;5037917;28;20331;-53
2023/01/29 03:54:47;;;;;;;13.87;11.13;;;;;;;;;;5044047;28;20243;-53
2023/01/29 03:57:15;;;;;;;16.27;11.97;;;;;;;;;;5043249;28;20608;-53
2023/01/29 03:59:48;;;;;;;15.23;11.20;;;;;;;;;;5043292;28;20611;-53
2023/01/29 04:02:26;;;;;;;15.13;11.57;;;;;;;;;;5042676;28;20235;-55
2023/01/29 04:04:54;;;;;;;18.07;12.43;;;;;;;;;;5033143;28;20279;-53
2023/01/29 04:07:23;;;;;;;17.10;12.07;;;;;;;;;;5038076;28;20239;-55
2023/01/29 04:09:51;;;;;;;15.57;12.37;;;;;;;;;;5039483;28;20233;-53
2023/01/29 04:12:20;;;;;;;14.07;11.57;;;;;;;;;;5061156;22;20239;-54
2023/01/29 04:14:48;;;;;;;13.93;10.53;;;;;;;;;;5043731;28;20242;-53
2023/01/29 04:17:16;;;;;;;21.10;13.37;;;;;;;;;;5057315;28;20231;-53
2023/01/29 04:19:43;;;;;;;14.83;11.50;;;;;;;;;;5053128;28;20364;-53
2023/01/29 04:22:12;;;;;;;15.10;12.33;;;;;;;;;;5053472;28;20242;-53
2023/01/29 04:24:39;;;;;;;13.53;11.67;;;;;;;;;;5042263;28;20242;-54
2023/01/29 04:27:15;;;;;;;18.93;12.57;;;;;;;;;;5048122;28;20321;-53
2023/01/29 04:29:46;;;;;;;16.60;12.60;;;;;;;;;;5055880;28;20238;-52
2023/01/29 04:32:17;;;;;;;15.90;12.63;;;;;;;;;;5059271;28;20272;-53
2023/01/29 04:34:50;;;;;;;15.67;12.17;;;;;;;;;;5058179;28;20332;-53
2023/01/29 04:37:19;;;;;;;17.97;13.37;;;;;;;;;;5054321;28;20241;-52
2023/01/29 04:39:49;;;;;;;20.73;13.57;;;;;;;;;;5057776;28;20669;-54
2023/01/29 04:42:20;;;;;;;17.03;12.70;;;;;;;;;;5051121;28;20278;-55
2023/01/29 04:44:50;;;;;;;17.73;12.30;;;;;;;;;;5053906;28;20238;-53
2023/01/29 04:47:22;;;;;;;17.17;12.83;;;;;;;;;;5065172;28;20670;-54
2023/01/29 04:49:52;;;;;;;17.63;13.23;;;;;;;;;;5060905;28;20227;-53
2023/01/29 04:52:22;;;;;;;15.87;12.03;;;;;;;;;;5055998;28;20242;-54
2023/01/29 04:54:52;;;;;;;17.97;13.53;;;;;;;;;;5053374;28;20322;-53
2023/01/29 04:57:22;;;;;;;20.70;13.73;;;;;;;;;;5053695;28;20229;-51
2023/01/29 04:59:51;;;;;;;17.73;12.50;;;;;;;;;;5056591;28;20249;-52
2023/01/29 05:02:19;;;;;;;17.07;12.27;;;;;;;;;;5052112;28;20230;-53
2023/01/29 05:04:47;;;;;;;19.50;13.83;;;;;;;;;;5051729;28;20323;-52
2023/01/29 05:07:15;;;;;;;20.50;13.63;;;;;;;;;;5041313;28;20604;-55
2023/01/29 05:09:42;;;;;;;18.27;13.13;;;;;;;;;;5059515;28;20321;-52
2023/01/29 05:12:10;;;;;;;20.87;13.87;;;;;;;;;;5065537;28;20412;-53
2023/01/29 05:14:38;;;;;;;18.07;14.27;;;;;;;;;;5065442;28;21038;-53
2023/01/29 05:17:08;;;;;;;18.63;14.23;;;;;;;;;;5064455;28;20239;-53
2023/01/29 05:19:36;;;;;;;21.07;14.50;;;;;;;;;;5063977;28;20242;-54
2023/01/29 05:22:04;;;;;;;21.93;14.33;;;;;;;;;;5045316;28;20242;-53
2023/01/29 05:24:31;;;;;;;20.57;13.50;;;;;;;;;;5045287;28;20713;-52
2023/01/29 05:29:43;;;;;;;18.60;13.37;;;;;;;;;;5029116;28;20234;-54
2023/01/29 05:32:10;;;;;;;24.43;14.70;;;;;;;;;;5025712;28;20749;-52
2023/01/29 05:34:38;;;;;;;18.93;14.20;;;;;;;;;;5027884;28;20230;-56
2023/01/29 05:37:05;;;;;;;17.20;12.80;;;;;;;;;;5043118;28;20289;-54
2023/01/29 05:39:32;;;;;;;20.87;13.93;;;;;;;;;;5044947;28;20259;-56
2023/01/29 05:41:58;;;;;;;16.63;13.27;;;;;;;;;;5044914;28;20242;-54
2023/01/29 05:44:25;;;;;;;20.07;14.07;;;;;;;;;;5045079;28;20278;-52
2023/01/29 05:46:52;;;;;;;20.40;15.23;;;;;;;;;;5045347;28;20267;-53
2023/01/29 05:49:19;;;;;;;20.00;14.70;;;;;;;;;;5047740;28;20227;-52
2023/01/29 05:51:47;;;;;;;18.67;13.30;;;;;;;;;;5051971;28;20803;-52
2023/01/29 05:54:13;;;;;;;17.93;13.00;;;;;;;;;;5041885;28;20262;-54
2023/01/29 05:56:40;;;;;;;20.27;14.57;;;;;;;;;;5045668;28;20280;-53
2023/01/29 05:59:07;;;;;;;21.73;15.37;;;;;;;;;;5038259;28;20325;-53
2023/01/29 06:01:34;;;;;;;20.47;14.30;;;;;;;;;;5025123;28;25428;-53
2023/01/29 06:04:00;;;;;;;20.07;14.93;;;;;;;;;;5060296;28;20231;-53
2023/01/29 06:06:27;;;;;;;25.13;14.37;;;;;;;;;;5065326;28;20321;-52
2023/01/29 06:08:55;;;;;;;19.07;15.20;;;;;;;;;;5047181;28;20227;-53
2023/01/29 06:11:22;;;;;;;20.37;14.97;;;;;;;;;;5044419;28;20721;-54
2023/01/29 06:13:49;;;;;;;21.33;14.43;;;;;;;;;;5044447;28;20238;-54
2023/01/29 06:16:15;;;;;;;21.23;13.60;;;;;;;;;;5046688;28;20292;-53
2023/01/29 06:18:42;;;;;;;21.30;15.40;;;;;;;;;;5063091;28;20784;-53
2023/01/29 06:21:10;;;;;;;23.50;16.50;;;;;;;;;;5048271;28;20263;-53
2023/01/29 06:23:37;;;;;;;17.63;13.90;;;;;;;;;;5048917;28;20613;-53
2023/01/29 06:26:07;;;;;;;22.80;14.93;;;;;;;;;;5048744;28;20308;-53
2023/01/29 06:28:33;;;;;;;23.10;14.13;;;;;;;;;;5047944;28;20304;-53
2023/01/29 06:31:01;;;;;;;23.27;13.47;;;;;;;;;;5063844;28;20234;-53
2023/01/29 06:33:28;;;;;;;16.83;13.23;;;;;;;;;;5047752;28;20317;-53
2023/01/29 06:35:58;;;;;;;19.40;14.43;;;;;;;;;;5041324;28;20228;-53
2023/01/29 06:38:24;;;;;;;21.37;15.17;;;;;;;;;;5034289;28;20240;-53
2023/01/29 06:40:51;;;;;;;19.03;14.60;;;;;;;;;;5034803;28;20234;-53
2023/01/29 06:43:19;;;;;;;21.33;14.03;;;;;;;;;;5050077;28;20246;-54
2023/01/29 06:45:47;;;;;;;22.33;15.17;;;;;;;;;;5060992;28;20723;-53
2023/01/29 06:48:13;;;;;;;20.00;14.10;;;;;;;;;;5058360;28;20243;-53
2023/01/29 06:50:40;;;;;;;21.53;14.57;;;;;;;;;;5043109;28;20227;-52
2023/01/29 06:53:07;;;;;;;22.20;14.27;;;;;;;;;;5047357;28;20249;-54
2023/01/29 06:55:33;;;;;;;21.07;13.63;;;;;;;;;;5048017;28;20814;-54
2023/01/29 06:58:00;;;;;;;19.97;14.13;;;;;;;;;;5065370;28;20250;-54
2023/01/29 07:00:28;;;;;;;20.33;14.93;;;;;;;;;;5053007;28;20243;-53
2023/01/29 07:02:55;;;;;;;18.97;14.20;;;;;;;;;;5045137;28;20250;-53
2023/01/29 07:05:21;;;;;;;17.93;14.17;;;;;;;;;;5030780;28;20813;-55
2023/01/29 07:07:48;;;;;;;21.90;15.10;;;;;;;;;;5042334;28;20230;-53
2023/01/29 07:10:14;;;;;;;21.40;14.83;;;;;;;;;;5055706;28;20291;-53
2023/01/29 07:12:41;;;;;;;19.37;15.60;;;;;;;;;;5070651;28;20234;-54
2023/01/29 07:15:08;;;;;;;20.10;15.60;;;;;;;;;;5069019;28;20238;-53
2023/01/29 07:17:36;;;;;;;20.03;13.63;;;;;;;;;;5058904;28;20293;-54
2023/01/29 07:20:02;;;;;;;23.10;15.77;;;;;;;;;;5051153;28;20231;-55
2023/01/29 07:22:29;;;;;;;20.93;15.70;;;;;;;;;;5048749;28;20251;-54
2023/01/29 07:24:55;;;;;;;26.97;15.50;;;;;;;;;;5049298;28;20400;-56
2023/01/29 07:27:22;;;;;;;22.53;15.00;;;;;;;;;;5051544;28;20325;-53
2023/01/29 07:29:48;;;;;;;20.93;14.77;;;;;;;;;;5051447;28;20266;-53
2023/01/29 07:32:15;;;;;;;23.00;15.83;;;;;;;;;;5053873;28;20929;-54
2023/01/29 07:34:43;;;;;;;22.57;15.07;;;;;;;;;;5054005;28;20239;-53
2023/01/29 07:37:10;;;;;;;24.73;16.27;;;;;;;;;;5044081;28;20739;-53
2023/01/29 07:39:36;;;;;;;22.23;15.77;;;;;;;;;;5049392;28;20243;-53
2023/01/29 07:42:03;;;;;;;22.07;15.20;;;;;;;;;;5038337;28;20232;-54
2023/01/29 07:44:29;;;;;;;21.30;14.87;;;;;;;;;;5044840;28;20230;-53
2023/01/29 07:46:56;;;;;;;21.80;15.47;;;;;;;;;;5050069;28;20611;-53
2023/01/29 07:49:22;;;;;;;22.40;15.07;;;;;;;;;;5053932;28;20239;-53
2023/01/29 07:51:50;;;;;;;22.60;15.77;;;;;;;;;;5041602;28;20236;-53
2023/01/29 07:54:17;;;;;;;25.03;16.60;;;;;;;;;;5056682;28;20281;-53
2023/01/29 07:56:43;;;;;;;23.67;15.87;;;;;;;;;;5063256;28;20743;-53
2023/01/29 07:59:10;;;;;;;24.63;16.67;;;;;;;;;;5056242;28;20281;-53
2023/01/29 08:01:37;;;;;;;23.80;16.17;;;;;;;;;;5045389;28;20243;-53
2023/01/29 08:04:03;;;;;;;23.40;16.70;;;;;;;;;;5063913;28;20241;-52
2023/01/29 08:06:30;;;;;;;22.60;15.50;;;;;;;;;;5044623;28;21240;-53
2023/01/29 08:08:58;;;;;;;25.57;17.57;;;;;;;;;;5046164;28;20625;-54
2023/01/29 08:11:25;;;;;;;26.33;17.43;;;;;;;;;;5051333;28;20783;-52
2023/01/29 08:13:51;;;;;;;23.53;17.13;;;;;;;;;;5064163;28;20581;-54
2023/01/29 08:16:18;;;;;;;24.20;16.20;;;;;;;;;;5051309;28;20239;-52
2023/01/29 08:18:46;;;;;;;27.87;17.70;;;;;;;;;;5045834;28;20243;-54
2023/01/29 08:21:13;;;;;;;24.83;18.10;;;;;;;;;;5046010;28;20243;-56
2023/01/29 08:23:39;;;;;;;24.80;16.23;;;;;;;;;;5045193;28;20228;-54
2023/01/29 08:26:08;;;;;;;24.43;15.60;;;;;;;;;;5048572;28;20265;-53
2023/01/29 08:28:37;;;;;;;24.63;16.13;;;;;;;;;;5045120;28;20338;-54
2023/01/29 08:31:04;;;;;;;25.20;17.53;;;;;;;;;;5052073;28;20233;-53
2023/01/29 08:33:31;;;;;;;20.37;15.77;;;;;;;;;;5056999;28;20618;-54
2023/01/29 08:35:57;;;;;;;21.27;14.77;;;;;;;;;;5052060;28;20239;-54
2023/01/29 08:38:25;;;;;;;20.43;15.63;;;;;;;;;;5063922;28;20234;-53
2023/01/29 08:40:52;;;;;;;25.97;17.10;;;;;;;;;;5057808;28;20653;-54
2023/01/29 08:43:20;;;;;;;24.03;16.63;;;;;;;;;;5045002;28;20238;-54
2023/01/29 08:45:47;;;;;;;22.60;15.50;;;;;;;;;;5045319;28;20336;-53
2023/01/29 08:48:14;;;;;;;20.47;16.07;;;;;;;;;;5046093;28;20315;-53
2023/01/29 08:50:40;;;;;;;23.90;16.47;;;;;;;;;;5046174;28;20868;-53
2023/01/29 08:53:08;;;;;;;20.13;14.97;;;;;;;;;;5044505;28;20241;-53
2023/01/29 08:55:36;;;;;;;28.63;16.97;;;;;;;;;;5044324;28;20239;-53
2023/01/29 08:58:03;;;;;;;25.00;16.63;;;;;;;;;;5043821;28;20234;-53
2023/01/29 09:00:32;;;;;;;22.73;17.27;;;;;;;;;;5045192;28;20286;-54
2023/01/29 09:02:59;;;;;;;28.57;18.03;;;;;;;;;;5046061;28;20236;-52
2023/01/29 09:05:26;;;;;;;27.20;16.63;;;;;;;;;;5047240;28;20902;-52
2023/01/29 09:07:53;;;;;;;25.67;16.93;;;;;;;;;;5040943;28;20228;-52
2023/01/29 09:10:19;;;;;;;27.70;17.13;;;;;;;;;;5043015;28;20239;-54
2023/01/29 09:12:46;;;;;;;26.10;18.00;;;;;;;;;;5045717;28;20239;-54
2023/01/29 09:15:12;;;;;;;26.73;17.00;;;;;;;;;;5045637;28;20241;-52
2023/01/29 09:17:41;;;;;;;22.67;15.93;;;;;;;;;;5044817;28;20235;-53
2023/01/29 09:20:09;;;;;;;40.37;25.67;;;;;;;;;;5047086;28;20302;-54
2023/01/29 09:22:35;;;;;;;27.00;16.13;;;;;;;;;;5053977;28;20242;-54
2023/01/29 09:25:02;;;;;;;20.33;15.10;;;;;;;;;;5055684;28;20311;-54
2023/01/29 09:27:29;;;;;;;25.93;16.10;;;;;;;;;;5063834;28;20313;-55
2023/01/29 09:29:55;;;;;;;20.37;15.20;;;;;;;;;;5056434;28;21396;-55
2023/01/29 09:32:22;;;;;;;23.63;15.30;;;;;;;;;;5054151;28;20240;-53
2023/01/29 09:34:50;;;;;;;21.67;15.60;;;;;;;;;;5059132;28;20311;-53
2023/01/29 09:37:17;;;;;;;20.63;14.93;;;;;;;;;;5051302;28;20234;-53
2023/01/29 09:39:44;;;;;;;22.90;16.07;;;;;;;;;;5036047;28;20683;-53
2023/01/29 09:42:12;;;;;;;20.33;13.67;;;;;;;;;;5043944;28;20793;-53
2023/01/29 09:44:46;;;;;;;27.77;15.43;;;;;;;;;;5044995;28;20723;-54
2023/01/29 09:47:14;;;;;;;21.60;15.33;;;;;;;;;;5045001;28;20234;-54
2023/01/29 09:49:43;;;;;;;21.03;14.47;;;;;;;;;;5045272;28;20317;-52
2023/01/29 09:52:15;;;;;;;25.80;14.60;;;;;;;;;;5040019;28;20234;-53
2023/01/29 09:54:47;;;;;;;24.83;18.13;;;;;;;;;;5054628;28;20290;-53
2023/01/29 09:57:17;;;;;;;23.60;15.93;;;;;;;;;;5060865;28;20227;-53
2023/01/29 09:59:44;;;;;;;21.47;13.43;;;;;;;;;;5057111;28;20234;-52
2023/01/29 10:02:19;;;;;;;18.77;13.43;;;;;;;;;;5044341;28;20235;-54
2023/01/29 10:05:00;;;;;;;18.37;13.20;;;;;;;;;;5049076;28;20248;-54
2023/01/29 10:07:40;;;;;;;20.50;14.17;;;;;;;;;;5062362;28;20231;-53
2023/01/29 10:10:18;;;;;;;20.17;13.57;;;;;;;;;;5048108;28;20235;-53
2023/01/29 10:13:00;;;;;;;20.87;13.47;;;;;;;;;;5048315;28;20253;-55
2023/01/29 10:15:36;;;;;;;17.30;13.03;;;;;;;;;;5047898;28;20238;-53
2023/01/29 10:18:24;;;;;;;20.73;13.00;;;;;;;;;;5041189;28;20233;-54
2023/01/29 10:20:56;;;;;;;23.80;15.40;;;;;;;;;;5035844;28;20718;-53
2023/01/29 10:23:27;;;;;;;18.43;12.87;;;;;;;;;;5048081;28;20743;-53
2023/01/29 10:25:54;;;;;;;21.37;13.53;;;;;;;;;;5035689;28;20289;-53
2023/01/29 10:28:24;;;;;;;17.33;12.37;;;;;;;;;;5054739;28;20228;-53
2023/01/29 10:30:51;;;;;;;15.33;12.07;;;;;;;;;;5045157;28;20258;-56
2023/01/29 10:33:18;;;;;;;17.80;12.50;;;;;;;;;;5060693;28;20234;-53
2023/01/29 10:35:48;;;;;;;18.13;13.13;;;;;;;;;;5051935;28;20274;-55
2023/01/29 10:38:30;;;;;;;17.00;12.60;;;;;;;;;;5049129;28;20950;-55
2023/01/29 10:41:01;;;;;;;20.63;12.73;;;;;;;;;;5045618;28;20787;-52
2023/01/29 10:43:32;;;;;;;19.27;13.33;;;;;;;;;;5048581;28;20242;-53
2023/01/29 10:46:05;;;;;;;17.33;12.20;;;;;;;;;;5048999;28;20230;-52
2023/01/29 10:48:38;;;;;;;16.53;11.97;;;;;;;;;;5047627;28;20288;-52
2023/01/29 10:51:10;;;;;;;19.07;11.80;;;;;;;;;;5046668;28;20239;-53
2023/01/29 10:53:43;;;;;;;15.77;11.87;;;;;;;;;;5048367;28;20231;-53
2023/01/29 10:56:27;;;;;;;17.70;12.20;;;;;;;;;;5043025;28;20262;-54
2023/01/29 10:58:55;;;;;;;18.33;12.93;;;;;;;;;;5043441;28;20238;-53
2023/01/29 11:01:21;;;;;;;18.27;12.13;;;;;;;;;;5051776;28;20246;-53
2023/01/29 11:03:55;;;;;;;23.13;13.33;;;;;;;;;;5067185;28;20590;-53
2023/01/29 11:06:23;;;;;;;14.70;11.13;;;;;;;;;;5057735;28;20326;-53
2023/01/29 11:08:53;;;;;;;13.70;11.60;;;;;;;;;;5048522;28;20238;-52
2023/01/29 11:11:22;;;;;;;14.53;10.37;;;;;;;;;;5051897;28;20249;-51
2023/01/29 11:13:52;;;;;;;15.37;10.63;;;;;;;;;;5055899;28;20262;-52
2023/01/29 11:16:18;;;;;;;18.20;11.93;;;;;;;;;;5039532;28;20232;-53
2023/01/29 11:18:49;;;;;;;15.70;12.43;;;;;;;;;;5046571;28;20326;-60
2023/01/29 11:21:15;;;;;;;17.40;12.87;;;;;;;;;;5043999;28;20725;-54
2023/01/29 11:23:42;;;;;;;17.43;11.60;;;;;;;;;;5055762;28;20609;-52
2023/01/29 11:26:11;;;;;;;14.97;10.20;;;;;;;;;;5047282;28;20716;-53
2023/01/29 11:28:40;;;;;;;14.60;11.33;;;;;;;;;;5046676;28;20250;-55
2023/01/29 11:31:17;;;;;;;14.87;10.43;;;;;;;;;;5046891;28;20334;-52
2023/01/29 11:33:45;;;;;;;17.67;10.60;;;;;;;;;;5047763;28;20234;-52
2023/01/29 11:36:22;;;;;;;14.93;11.13;;;;;;;;;;5055877;28;20237;-52
2023/01/29 11:39:04;;;;;;;16.60;11.47;;;;;;;;;;5046999;28;20245;-53
2023/01/29 11:41:42;;;;;;;15.10;10.17;;;;;;;;;;5047585;28;20309;-52
2023/01/29 11:44:18;;;;;;;15.80;10.63;;;;;;;;;;5047354;28;20254;-53
2023/01/29 11:46:45;;;;;;;12.53;10.33;;;;;;;;;;5041990;28;20313;-56
2023/01/29 11:49:15;;;;;;;14.63;10.23;;;;;;;;;;5034841;28;20657;-52
2023/01/29 11:51:42;;;;;;;16.53;11.07;;;;;;;;;;5045111;28;20338;-53
2023/01/29 11:54:15;;;;;;;13.87;10.67;;;;;;;;;;5054574;28;20752;-52
2023/01/29 11:56:42;;;;;;;13.63;9.93;;;;;;;;;;5047373;28;20237;-52
2023/01/29 11:59:21;;;;;;;14.87;10.23;;;;;;;;;;5047230;28;20251;-54
2023/01/29 12:01:49;;;;;;;12.63;9.83;;;;;;;;;;5048069;28;20230;-53
2023/01/29 12:04:18;;;;;;;14.50;9.87;;;;;;;;;;5045282;28;20240;-55
2023/01/29 12:06:47;;;;;;;17.73;11.33;;;;;;;;;;5046919;28;20715;-54
2023/01/29 12:09:16;;;;;;;13.83;10.07;;;;;;;;;;5043428;28;20649;-53
2023/01/29 12:11:42;;;;;;;16.87;11.03;;;;;;;;;;5051644;28;20262;-53
2023/01/29 12:14:23;;;;;;;15.83;10.67;;;;;;;;;;5047736;28;20289;-53
2023/01/29 12:16:53;;;;;;;13.87;10.20;;;;;;;;;;5044967;28;20247;-52
2023/01/29 12:19:25;;;;;;;12.97;9.13;;;;;;;;;;5047161;28;20748;-54
2023/01/29 12:21:53;;;;;;;12.53;9.90;;;;;;;;;;5053215;28;20240;-53
2023/01/29 12:24:31;;;;;;;16.00;10.27;;;;;;;;;;5052739;28;20872;-54
2023/01/29 12:27:01;;;;;;;12.60;9.47;;;;;;;;;;5044912;28;20727;-53
2023/01/29 12:29:31;;;;;;;13.17;10.50;;;;;;;;;;5049050;28;20260;-54
2023/01/29 12:32:04;;;;;;;14.43;9.30;;;;;;;;;;5046996;28;20324;-54
2023/01/29 12:34:38;;;;;;;13.90;9.73;;;;;;;;;;5044019;28;20259;-54
2023/01/29 12:37:09;;;;;;;14.03;9.97;;;;;;;;;;5045209;28;21069;-53
2023/01/29 12:39:36;;;;;;;13.73;10.20;;;;;;;;;;5047998;28;20997;-53
2023/01/29 12:42:04;;;;;;;15.60;10.10;;;;;;;;;;5044629;28;20242;-53
2023/01/29 12:44:34;;;;;;;13.20;10.27;;;;;;;;;;5045844;28;20238;-52
2023/01/29 12:47:05;;;;;;;13.90;10.70;;;;;;;;;;5048759;28;20241;-52
2023/01/29 12:49:33;;;;;;;15.07;10.30;;;;;;;;;;5048958;28;20239;-52
2023/01/29 12:52:02;;;;;;;14.77;11.10;;;;;;;;;;5046023;28;20657;-52
2023/01/29 12:54:33;;;;;;;15.27;11.40;;;;;;;;;;5051116;28;20243;-51
2023/01/29 12:57:01;;;;;;;16.97;10.50;;;;;;;;;;5047259;28;20235;-54
2023/01/29 12:59:30;;;;;;;17.73;10.97;;;;;;;;;;5043771;28;20246;-54
2023/01/29 13:01:58;;;;;;;16.47;10.67;;;;;;;;;;5048030;28;20323;-53
2023/01/29 13:04:30;;;;;;;14.07;10.97;;;;;;;;;;5048775;28;20239;-54
2023/01/29 13:07:00;;;;;;;14.47;10.37;;;;;;;;;;5051433;28;20229;-52
2023/01/29 13:09:28;;;;;;;17.30;11.60;;;;;;;;;;5054268;28;20794;-53
2023/01/29 13:11:56;;;;;;;13.70;10.53;;;;;;;;;;5047219;28;20307;-53
2023/01/29 13:14:25;;;;;;;15.80;12.03;;;;;;;;;;5047100;28;20637;-52
2023/01/29 13:16:53;;;;;;;18.97;11.33;;;;;;;;;;5045707;28;20259;-52
2023/01/29 13:19:26;;;;;;;15.07;11.17;;;;;;;;;;5044401;28;20338;-54
2023/01/29 13:21:54;;;;;;;16.53;11.33;;;;;;;;;;5044558;28;20234;-53
2023/01/29 13:24:22;;;;;;;16.60;11.40;;;;;;;;;;5049308;28;20235;-53
2023/01/29 13:26:49;;;;;;;16.00;11.27;;;;;;;;;;5045814;28;20270;-55
2023/01/29 13:29:21;;;;;;;16.00;11.13;;;;;;;;;;5044469;28;20232;-58
2023/01/29 13:31:48;;;;;;;14.70;11.40;;;;;;;;;;5050065;28;20243;-53
2023/01/29 13:34:15;;;;;;;14.97;10.97;;;;;;;;;;5048736;28;20231;-55
2023/01/29 13:36:43;;;;;;;13.43;11.17;;;;;;;;;;5047019;28;20237;-54
2023/01/29 13:39:17;;;;;;;16.67;12.27;;;;;;;;;;5050506;28;20800;-52
2023/01/29 13:41:43;;;;;;;15.57;11.23;;;;;;;;;;5038201;28;20304;-53
2023/01/29 13:44:20;;;;;;;13.40;10.20;;;;;;;;;;5045515;28;20239;-53
2023/01/29 13:46:49;;;;;;;16.77;10.40;;;;;;;;;;5043617;28;20230;-53
2023/01/29 13:49:25;;;;;;;12.80;9.10;;;;;;;;;;5040866;28;20326;-53
2023/01/29 13:51:51;;;;;;;14.60;10.77;;;;;;;;;;5045418;28;20703;-58
2023/01/29 13:54:24;;;;;;;16.47;11.17;;;;;;;;;;5045131;28;20263;-53
2023/01/29 13:56:58;;;;;;;15.33;11.27;;;;;;;;;;5042838;28;20316;-54
2023/01/29 13:59:44;;;;;;;14.40;10.70;;;;;;;;;;5047212;28;20240;-53
2023/01/29 14:02:22;;;;;;;17.53;13.00;;;;;;;;;;5048063;28;20243;-53
2023/01/29 14:04:48;;;;;;;19.30;12.87;;;;;;;;;;5048402;28;20300;-53
2023/01/29 14:07:33;;;;;;;15.83;11.73;;;;;;;;;;5042766;28;20441;-53
2023/01/29 14:10:13;;;;;;;16.27;12.70;;;;;;;;;;5040959;28;20266;-52
2023/01/29 14:12:41;;;;;;;19.53;13.07;;;;;;;;;;5045544;28;20331;-53
2023/01/29 14:15:24;;;;;;;22.03;14.53;;;;;;;;;;5048293;28;20304;-52
2023/01/29 14:18:04;;;;;;;17.57;12.57;;;;;;;;;;5043183;28;20234;-53
2023/01/29 14:20:32;;;;;;;20.10;13.37;;;;;;;;;;5042213;28;20257;-53
2023/01/29 14:23:00;;;;;;;20.20;15.40;;;;;;;;;;5041605;28;20276;-55
2023/01/29 14:25:30;;;;;;;18.67;13.73;;;;;;;;;;5042991;28;20326;-54
2023/01/29 14:27:57;;;;;;;20.03;14.17;;;;;;;;;;5044270;28;20234;-54
2023/01/29 14:30:25;;;;;;;21.30;15.10;;;;;;;;;;5044442;28;20326;-53
2023/01/29 14:32:51;;;;;;;22.03;14.97;;;;;;;;;;5043911;28;20239;-53
2023/01/29 14:35:19;;;;;;;22.37;14.70;;;;;;;;;;5044082;28;20752;-53
2023/01/29 14:37:47;;;;;;;23.00;15.53;;;;;;;;;;5042841;28;20238;-54
2023/01/29 14:40:18;;;;;;;22.83;14.13;;;;;;;;;;5050139;28;20935;-53
2023/01/29 14:42:51;;;;;;;21.77;15.37;;;;;;;;;;5047996;28;20420;-53
2023/01/29 14:45:22;;;;;;;23.83;16.97;;;;;;;;;;5048627;28;20233;-54
2023/01/29 14:48:10;;;;;;;25.03;16.30;;;;;;;;;;5045563;28;20282;-54
2023/01/29 14:50:49;;;;;;;21.23;16.30;;;;;;;;;;5044006;28;20241;-55
2023/01/29 14:53:19;;;;;;;24.80;16.47;;;;;;;;;;5043337;28;20230;-53
2023/01/29 14:55:50;;;;;;;26.70;16.30;;;;;;;;;;5048238;28;20234;-53
2023/01/29 14:58:20;;;;;;;20.10;13.87;;;;;;;;;;5050011;28;20239;-54